Startpagina
METAR-TAF:

METAR-TAF

Vliegvelden :

Irkoetsk, Rusland

Luchthaven Irkoetsk

breedte: 52-16N, lengte: 104-19E, hoogte: 513 m

Actueel weer

Dit bericht is 25 minuten geleden gemaakt, om 12:30 UTC
Weinig wind
Temperatuur -8°C
Vochtigheid 92%
Druk 1020 hPa
Zicht: 2200 m
Verspreide wolken op 3500 ft, Cumulonimbus.
lichte sneeuwbuien

METAR: UIII 221230Z 00000MPS 2200 R30/P2000U -SHSN SCT035CB M08/M09 Q1020 RESHSN R30/490340 NOSIG RMK QFE720/0960

Tijdstip: 20:55 (12:55 UTC)

Verwachting

Dit bericht is 1 uur en het 55 minuten geleden gemaakt, om 11:00 UTC
Verwachting geldig van 22 om 12 UTC tot 23 om 12 UTC
Wind 6 kt uit het westnoordwesten
Zicht: 2000 m
Gebroken wolken op 1100 ft, Cumulonimbus.
sneeuwbuien
Tijdelijke
van 22 om 12 UTC tot 23 om 05 UTC
Zicht: 0900 m
op 300 ft
zware sneeuwbuien
Wijzigt naar
van 23 om 05 UTC tot 23 om 06 UTC
Zicht 10 km of meer

TAF: UIII 221100Z 2212/2312 30003MPS 2000 SHSN BKN011CB TEMPO 2212/2305 0900 +SHSN VV003 BECMG 2305/2306 9999 NSW

Waarnemingen en weersverwachtingen van meer dan 4000 vliegvelden (METAR en TAF).

De beschikbare stations zijn de gele en rode punten op de kaart.

Ga met uw muis naar het station om de naam te zien.

Klik dan om waarnemingen en weersverwachtingen te zien.

kaart wijzigen: klik op de groene knoppen met een zwart kruis om in te zoomen, op de groene knop met een streepje om uit te zoomen of op de groene pijlen voor aangrenzende kaarten.


METAR-TAF: